»·PEaware :: UAL935 KCOS-KDEN

UAL935 :: KCOS-KDEN

FLIGHT INFORMATION

Flight Status: Arrived
Operator:
United Airlines
More flights by this operator :: More flights under this callsign
Pilot: Michael S. (20314)
Aircraft: AIRBUS A321
(A321)
More flights by this aircraft type
Origin: KCOS City Of Colorado Springs Mun
United States
Destination: KDEN Denver Intl
United States
More flights between these airports :: More routes between these airports
Route: ADANE V389 LUFSE JEFEL
File this flight plan on PilotEdge
Remarks: RMK / SIMBRIEF
Altitude:
(Current/Filed)
12,000ft
Speed:
(Current/Filed)
361kts
Departed: 27-Sep-21 04:53 PM
Arrived: 27-Sep-21 05:21 PM
Distance/Time
Traveled:
63nm/0:27
Distance/Time
To Go:
Arrived

Flight Plot

Page will automatically refresh every two minutes.

Flight plan parsing failed; only flown route is shown


Map Options




Map Legend


Flown Route
Filed Route
Departure Airport
Arrival Airport
Navaid (VOR, NDB)
Fix

Horizontal Profiles

Position Reports

Time Latitude Longitude Heading Altitude Ground
Speed
27-Sep-21 16:25 38.797936 -104.701548 100 6196ft 0kts
27-Sep-21 16:26 38.797936 -104.701548 100 6196ft 0kts
27-Sep-21 16:27 38.797936 -104.701548 100 6196ft 0kts
27-Sep-21 16:28 38.797936 -104.701548 100 6196ft 0kts
27-Sep-21 16:29 38.797936 -104.701548 100 6196ft 0kts
27-Sep-21 16:30 38.797936 -104.701548 100 6196ft 0kts
27-Sep-21 16:31 38.797936 -104.701548 100 6196ft 0kts
27-Sep-21 16:32 38.797936 -104.701548 100 6196ft 0kts
27-Sep-21 16:33 38.797936 -104.701548 100 6196ft 0kts
27-Sep-21 16:34 38.797936 -104.701548 100 6196ft 0kts
27-Sep-21 16:35 38.797936 -104.701548 100 6196ft 0kts
27-Sep-21 16:36 38.797936 -104.701548 100 6196ft 0kts
27-Sep-21 16:37 38.797982 -104.701920 117 6196ft 2kts
27-Sep-21 16:38 38.798319 -104.702546 123 6196ft 2kts
27-Sep-21 16:39 38.798430 -104.702954 11 6196ft 1kts
27-Sep-21 16:40 38.798345 -104.702951 358 6196ft 0kts
27-Sep-21 16:41 38.798345 -104.702951 358 6196ft 0kts
27-Sep-21 16:42 38.799140 -104.702908 10 6196ft 13kts
27-Sep-21 16:43 38.801830 -104.700986 359 6196ft 11kts
27-Sep-21 16:44 38.803118 -104.698070 89 6196ft 12kts
27-Sep-21 16:45 38.803120 -104.693306 89 6196ft 13kts
27-Sep-21 16:46 38.803146 -104.688359 82 6196ft 11kts
27-Sep-21 16:47 38.806010 -104.687651 359 6196ft 13kts
27-Sep-21 16:48 38.809713 -104.687635 0 6196ft 12kts
27-Sep-21 16:49 38.813453 -104.687639 0 6196ft 14kts
27-Sep-21 16:50 38.815927 -104.687055 81 6196ft 0kts
27-Sep-21 16:51 38.815398 -104.685758 177 6196ft 14kts
27-Sep-21 16:52 38.776141 -104.685484 178 7540ft 197kts
27-Sep-21 16:53 38.721232 -104.682760 150 9432ft 226kts
27-Sep-21 16:54 38.734247 -104.606170 39 10664ft 308kts
27-Sep-21 16:55 38.805888 -104.528109 43 11954ft 358kts
27-Sep-21 16:56 38.879324 -104.442287 43 12048ft 357kts
27-Sep-21 16:57 38.969833 -104.395689 3 12066ft 365kts
27-Sep-21 16:58 39.070537 -104.391694 3 12063ft 366kts
27-Sep-21 16:59 39.172447 -104.386695 3 12063ft 367kts
27-Sep-21 17:00 39.263980 -104.338810 39 12026ft 359kts
27-Sep-21 17:01 39.346523 -104.267292 17 11988ft 364kts
27-Sep-21 17:02 39.441222 -104.305728 327 12000ft 372kts
27-Sep-21 17:03 39.528622 -104.379323 328 11999ft 374kts
27-Sep-21 17:04 39.613650 -104.433741 347 11667ft 348kts
27-Sep-21 17:05 39.702989 -104.462449 347 11150ft 312kts
27-Sep-21 17:06 39.787345 -104.489438 347 10652ft 312kts
27-Sep-21 17:07 39.872294 -104.506160 358 10151ft 309kts
27-Sep-21 17:08 39.957526 -104.513995 358 9654ft 307kts
27-Sep-21 17:09 40.037857 -104.521618 358 9132ft 271kts
27-Sep-21 17:10 40.109118 -104.528684 358 9040ft 247kts
27-Sep-21 17:11 40.154182 -104.574947 266 9020ft 220kts
27-Sep-21 17:12 40.154996 -104.655015 267 8983ft 220kts
27-Sep-21 17:13 40.123612 -104.698579 164 9007ft 182kts
27-Sep-21 17:14 40.078463 -104.694252 176 8972ft 161kts
27-Sep-21 17:15 40.034436 -104.694451 177 8143ft 157kts
27-Sep-21 17:16 39.991295 -104.695310 176 7277ft 154kts
27-Sep-21 17:17 39.948651 -104.695506 175 6503ft 153kts
27-Sep-21 17:18 39.906843 -104.696040 175 5721ft 149kts
27-Sep-21 17:19 39.875057 -104.696344 179 5443ft 54kts
27-Sep-21 17:20 39.867508 -104.695732 157 5443ft 16kts
27-Sep-21 17:21 39.863726 -104.693114 151 5443ft 15kts
27-Sep-21 17:22 39.860437 -104.689855 93 5443ft 15kts
27-Sep-21 17:23 39.860313 -104.684219 88 5443ft 15kts
27-Sep-21 17:24 39.860289 -104.678969 90 5443ft 6kts
27-Sep-21 17:25 39.859571 -104.677858 173 5443ft 2kts
27-Sep-21 17:26 39.859442 -104.677845 176 5443ft 0kts

Navigation Log

Ident Type
Flight plan parsing failed, navigation log unavailable